createdAt,value
2023-01-15T00:04:22.225Z,81.46
2023-01-15T00:09:42.788Z,81.80
2023-01-15T00:15:04.016Z,81.51
2023-01-15T00:20:24.409Z,80.93
2023-01-15T00:26:03.415Z,80.51
2023-01-15T00:31:24.097Z,80.41
2023-01-15T00:36:45.827Z,80.86
2023-01-15T00:42:06.332Z,81.16
2023-01-15T00:47:27.303Z,81.30
2023-01-15T00:52:47.488Z,81.32
2023-01-15T00:58:08.102Z,81.20
2023-01-15T01:03:29.440Z,80.88
2023-01-15T01:08:50.324Z,80.61
2023-01-15T01:14:12.078Z,80.72
2023-01-15T01:19:32.826Z,80.38
2023-01-15T01:24:53.198Z,80.06
2023-01-15T01:30:14.909Z,79.83
2023-01-15T01:44:22.360Z,80.03
2023-01-15T01:49:45.506Z,80.17
2023-01-15T01:55:07.607Z,79.73
2023-01-15T02:00:28.834Z,79.53
2023-01-15T02:05:54.911Z,80.09
2023-01-15T02:11:24.663Z,80.18
2023-01-15T02:17:00.137Z,79.67
2023-01-15T02:22:42.917Z,79.21
2023-01-15T02:28:10.375Z,78.99
2023-01-15T02:33:58.898Z,78.98
2023-01-15T02:39:21.366Z,79.69
2023-01-15T02:44:48.901Z,79.65
2023-01-15T02:50:15.063Z,79.69
2023-01-15T02:55:40.872Z,79.26
2023-01-15T03:01:09.648Z,79.36
2023-01-15T03:06:46.344Z,79.82
2023-01-15T03:12:15.172Z,79.80
2023-01-15T03:17:48.683Z,80.10
2023-01-15T03:23:14.219Z,80.33
2023-01-15T03:28:38.841Z,80.05
2023-01-15T03:33:59.422Z,79.83
2023-01-15T03:39:21.497Z,80.05
2023-01-15T03:45:02.718Z,80.20
2023-01-15T03:50:37.248Z,80.23
2023-01-15T03:56:02.047Z,80.34
2023-01-15T04:01:33.414Z,79.96
2023-01-15T04:06:55.849Z,80.11
2023-01-15T04:12:16.888Z,79.51
2023-01-15T04:17:41.374Z,79.91
2023-01-15T04:23:03.022Z,79.81
2023-01-15T04:28:23.736Z,79.83
2023-01-15T04:33:44.658Z,79.61
2023-01-15T04:39:05.500Z,79.09
2023-01-15T04:44:28.681Z,78.18
2023-01-15T04:49:49.390Z,78.55
2023-01-15T04:55:10.160Z,78.27
2023-01-15T05:00:30.731Z,78.12
2023-01-15T05:05:51.144Z,78.38
2023-01-15T05:11:11.595Z,78.47
2023-01-15T05:16:33.303Z,78.88
2023-01-15T05:21:54.190Z,78.69
2023-01-15T05:27:14.712Z,78.26
2023-01-15T05:32:35.024Z,78.04
2023-01-15T05:37:55.643Z,78.31
2023-01-15T05:43:16.501Z,78.33
2023-01-15T05:48:37.280Z,78.48
2023-01-15T05:53:58.235Z,77.87
2023-01-15T05:59:21.995Z,77.72
2023-01-15T06:04:42.534Z,76.91
2023-01-15T06:10:04.131Z,77.40
2023-01-15T06:15:24.895Z,77.51
2023-01-15T06:20:45.383Z,77.42
2023-01-15T06:26:10.526Z,77.21
2023-01-15T06:31:32.605Z,76.83
2023-01-15T06:36:53.749Z,76.57
2023-01-15T06:42:32.919Z,76.10
2023-01-15T06:47:53.457Z,76.38
2023-01-15T06:53:14.352Z,76.30
2023-01-15T06:58:35.021Z,75.93
2023-01-15T07:03:56.411Z,75.17
2023-01-15T07:09:17.150Z,74.86
2023-01-15T07:14:38.151Z,75.02
2023-01-15T07:19:59.359Z,74.90
2023-01-15T07:25:20.003Z,75.30
2023-01-15T07:30:40.528Z,74.96
2023-01-15T07:36:05.683Z,74.77
2023-01-15T07:41:45.030Z,74.44
2023-01-15T07:47:46.943Z,74.50
2023-01-15T07:53:07.712Z,74.36
2023-01-15T07:58:28.233Z,74.48
2023-01-15T08:03:48.642Z,74.87
2023-01-15T08:09:09.504Z,74.81
2023-01-15T08:14:48.805Z,74.95
2023-01-15T08:20:14.531Z,74.60
2023-01-15T08:25:35.248Z,74.43
2023-01-15T08:30:56.403Z,74.05
2023-01-15T08:36:18.251Z,73.66
2023-01-15T08:41:38.915Z,73.37
2023-01-15T08:47:00.038Z,73.51
2023-01-15T08:52:20.982Z,73.26
2023-01-15T08:57:41.439Z,73.38
2023-01-15T09:03:02.297Z,73.25
2023-01-15T09:08:23.403Z,72.70
2023-01-15T09:13:46.679Z,73.45
2023-01-15T09:19:10.273Z,73.00
2023-01-15T09:24:30.869Z,72.14
2023-01-15T09:29:51.486Z,71.99
2023-01-15T09:35:12.344Z,72.17
2023-01-15T09:41:03.623Z,72.31
2023-01-15T09:47:07.233Z,72.13
2023-01-15T09:52:39.360Z,71.77
2023-01-15T09:58:04.489Z,71.38
2023-01-15T10:03:35.820Z,69.79
2023-01-15T10:09:23.407Z,70.29
2023-01-15T10:15:11.284Z,70.67
2023-01-15T10:20:48.525Z,70.48
2023-01-15T10:26:32.056Z,69.37
2023-01-15T10:32:10.573Z,69.14
2023-01-15T10:37:43.067Z,67.39
2023-01-15T10:49:46.532Z,61.76
2023-01-15T10:55:20.870Z,61.68
2023-01-15T11:00:45.788Z,65.51
2023-01-15T11:06:13.357Z,67.97
2023-01-15T11:12:01.088Z,70.13
2023-01-15T11:18:06.112Z,70.74
2023-01-15T11:23:27.439Z,67.46
2023-01-15T11:28:49.349Z,70.14
2023-01-15T11:34:21.930Z,72.09
2023-01-15T11:39:52.595Z,72.19
2023-01-15T11:45:35.113Z,72.52
2023-01-15T11:51:06.789Z,73.01
2023-01-15T11:56:31.272Z,73.70
2023-01-15T12:02:05.238Z,73.67
2023-01-15T12:07:26.885Z,74.47
2023-01-15T12:13:05.535Z,74.66
2023-01-15T12:18:56.716Z,75.42
2023-01-15T12:24:29.436Z,75.85
2023-01-15T12:29:57.900Z,76.48
2023-01-15T12:35:27.489Z,77.09
2023-01-15T12:40:56.496Z,77.37
2023-01-15T12:46:22.971Z,78.27
2023-01-15T12:51:54.976Z,79.36
2023-01-15T12:57:23.257Z,79.95
2023-01-15T13:03:03.806Z,80.33
2023-01-15T13:08:34.326Z,80.33
2023-01-15T13:13:58.270Z,80.65
2023-01-15T13:19:46.396Z,80.58
2023-01-15T13:25:07.210Z,80.77
2023-01-15T13:30:49.147Z,81.38
2023-01-15T13:36:17.372Z,81.22
2023-01-15T13:41:56.763Z,80.68
2023-01-15T13:47:23.669Z,80.32
2023-01-15T13:52:44.702Z,80.17
2023-01-15T13:58:26.813Z,79.55
2023-01-15T14:04:12.415Z,79.77
2023-01-15T14:09:34.355Z,80.95
2023-01-15T14:15:25.184Z,81.47
2023-01-15T14:21:04.889Z,80.88
2023-01-15T14:26:47.835Z,80.56
2023-01-15T14:32:18.248Z,80.35
2023-01-15T14:37:45.431Z,79.82
2023-01-15T14:43:18.170Z,79.39
2023-01-15T14:48:39.349Z,78.97
2023-01-15T14:54:11.250Z,77.84
2023-01-15T14:59:48.688Z,77.64
2023-01-15T15:05:16.577Z,78.83
2023-01-15T15:10:41.319Z,80.85
2023-01-15T15:16:17.656Z,82.28
2023-01-15T15:21:43.114Z,82.89
2023-01-15T15:27:21.588Z,83.14
2023-01-15T15:32:44.342Z,83.16
2023-01-15T15:38:06.134Z,82.78
2023-01-15T15:44:02.802Z,82.55
2023-01-15T15:49:23.242Z,81.80
2023-01-15T15:54:44.287Z,81.17
2023-01-15T16:00:05.494Z,80.40
2023-01-15T16:05:31.500Z,80.53
2023-01-15T16:10:58.291Z,80.23
2023-01-15T16:16:20.816Z,79.36
2023-01-15T16:21:42.476Z,79.40
2023-01-15T16:27:21.638Z,79.02
2023-01-15T16:32:43.963Z,78.96
2023-01-15T16:38:07.245Z,78.40
2023-01-15T16:43:29.577Z,77.77
2023-01-15T16:49:22.485Z,77.69
2023-01-15T16:54:43.938Z,77.04
2023-01-15T17:00:06.957Z,76.76
2023-01-15T17:05:29.365Z,76.43
2023-01-15T17:10:59.261Z,76.86
2023-01-15T17:16:22.552Z,76.58
2023-01-15T17:21:47.396Z,76.65
2023-01-15T17:27:08.227Z,75.96
2023-01-15T17:32:32.518Z,74.63
2023-01-15T17:37:53.494Z,73.57
2023-01-15T17:43:15.504Z,74.31
2023-01-15T17:48:36.407Z,74.40
2023-01-15T17:53:57.590Z,74.78
2023-01-15T17:59:36.700Z,75.58
2023-01-15T18:05:16.732Z,75.00
2023-01-15T18:10:37.412Z,74.86
2023-01-15T18:15:58.067Z,75.10
2023-01-15T18:21:19.240Z,74.84
2023-01-15T18:26:41.436Z,74.49
2023-01-15T18:32:02.031Z,74.98
2023-01-15T18:37:23.233Z,74.61
2023-01-15T18:43:02.144Z,74.34
2023-01-15T18:48:22.989Z,74.26
2023-01-15T18:53:43.357Z,74.49
2023-01-15T18:59:12.322Z,74.75
2023-01-15T19:04:34.227Z,74.55
2023-01-15T19:09:54.875Z,74.87
2023-01-15T19:15:37.989Z,75.07
2023-01-15T19:20:58.740Z,75.43
2023-01-15T19:26:19.209Z,75.45
2023-01-15T19:31:40.436Z,75.38
2023-01-15T19:37:02.593Z,75.59
2023-01-15T19:42:42.114Z,75.80
2023-01-15T19:48:22.105Z,75.60
2023-01-15T19:53:42.943Z,75.72
2023-01-15T19:59:04.477Z,75.63
2023-01-15T20:04:25.346Z,75.57
2023-01-15T20:09:46.002Z,75.42
2023-01-15T20:15:07.601Z,74.78
2023-01-15T20:20:28.452Z,74.60
2023-01-15T20:25:51.804Z,74.32
2023-01-15T20:31:18.203Z,74.84
2023-01-15T20:36:38.780Z,74.94
2023-01-15T20:42:18.272Z,74.80
2023-01-15T20:47:59.993Z,74.88
2023-01-15T20:53:20.771Z,75.07
2023-01-15T20:58:41.386Z,74.78
2023-01-15T21:04:02.026Z,75.23
2023-01-15T21:09:22.983Z,75.10
2023-01-15T21:14:43.746Z,75.09
2023-01-15T21:20:09.728Z,75.48
2023-01-15T21:25:30.206Z,75.00
2023-01-15T21:30:50.939Z,74.66
2023-01-15T21:36:14.514Z,74.60
2023-01-15T21:41:53.647Z,74.46
2023-01-15T21:47:17.163Z,74.77
2023-01-15T21:52:37.829Z,74.56
2023-01-15T21:57:58.971Z,74.30
2023-01-15T22:03:20.305Z,74.25
2023-01-15T22:08:40.963Z,74.57
2023-01-15T22:14:01.698Z,74.97
2023-01-15T22:19:24.836Z,75.40
2023-01-15T22:24:45.702Z,75.19
2023-01-15T22:30:12.557Z,74.93
2023-01-15T22:35:33.590Z,74.35
2023-01-15T22:40:54.469Z,73.81
2023-01-15T22:46:14.978Z,73.84
2023-01-15T22:51:35.896Z,73.81
2023-01-15T22:56:56.580Z,73.80
2023-01-15T23:02:18.038Z,73.73
2023-01-15T23:07:41.316Z,73.38
2023-01-15T23:13:02.313Z,73.14
2023-01-15T23:18:23.703Z,73.38
2023-01-15T23:23:45.220Z,73.42
2023-01-15T23:29:06.655Z,73.20
2023-01-15T23:34:27.183Z,73.32
2023-01-15T23:39:47.650Z,72.97
2023-01-15T23:45:29.551Z,72.68
2023-01-15T23:50:49.807Z,72.44
2023-01-15T23:56:10.790Z,72.38
